Time;durP1;ratioP1;P1;durP2;ratioP2;P2;SDS_P1;SDS_P2;PMS_P1;PMS_P2;Temp;Humidity;BMP_temperature;BMP_pressure;BME280_temperature;BME280_humidity;BME280_pressure;Samples;Min_cycle;Max_cycle;Signal;HPM_P1;HPM_P2
2023/06/03 00:01:56;;;;;;;;;;;;;;;28.34;35.48;96198.59;4957816;28;19968;-57
2023/06/03 00:04:24;;;;;;;;;;;;;;;28.56;34.92;96193.06;4959963;28;19975;-55
2023/06/03 00:06:52;;;;;;;;;;;;;;;28.16;35.51;96197.16;4963297;28;19961;-51
2023/06/03 00:09:20;;;;;;;;;;;;;;;28.74;34.77;96202.59;4955782;28;19965;-57
2023/06/03 00:11:48;;;;;;;;;;;;;;;28.06;35.39;96205.25;4961291;28;20484;-48
2023/06/03 00:14:16;;;;;;;;;;;;;;;28.93;34.53;96197.50;4961052;28;20394;-51
2023/06/03 00:16:46;;;;;;;;;;;;;;;29.19;33.89;96198.41;4959694;28;19974;-49
2023/06/03 00:19:15;;;;;;;;;;;;;;;29.07;34.32;96198.63;4957488;28;19961;-52
2023/06/03 00:21:45;;;;;;;;;;;;;;;29.03;34.22;96199.44;4965747;28;19962;-51
2023/06/03 00:24:14;;;;;;;;;;;;;;;28.22;34.94;96205.31;4960641;28;20389;-47
2023/06/03 00:26:42;;;;;;;;;;;;;;;28.55;34.77;96212.28;4960241;28;19976;-52
2023/06/03 00:29:10;;;;;;;;;;;;;;;28.64;34.51;96210.72;4964028;28;19980;-49
2023/06/03 00:31:38;;;;;;;;;;;;;;;28.59;34.82;96210.69;4961306;28;20679;-48
2023/06/03 00:34:07;;;;;;;;;;;;;;;28.82;34.10;96203.97;4961041;28;19969;-46
2023/06/03 00:36:36;;;;;;;;;;;;;;;28.62;34.33;96215.56;4957526;28;20406;-49
2023/06/03 00:39:04;;;;;;;;;;;;;;;28.48;34.63;96212.53;4961437;28;19965;-55
2023/06/03 00:41:32;;;;;;;;;;;;;;;28.47;34.16;96210.91;4958042;28;19960;-55
2023/06/03 00:44:00;;;;;;;;;;;;;;;28.15;34.78;96214.53;4959638;28;19969;-47
2023/06/03 00:46:28;;;;;;;;;;;;;;;28.85;33.74;96208.88;4956007;28;20025;-47
2023/06/03 00:48:56;;;;;;;;;;;;;;;28.14;34.50;96203.91;4959507;28;19972;-49
2023/06/03 00:51:25;;;;;;;;;;;;;;;28.11;34.60;96210.72;4978599;28;22692;-47
2023/06/03 00:53:54;;;;;;;;;;;;;;;28.32;34.56;96210.78;4951590;28;19977;-55
2023/06/03 00:56:22;;;;;;;;;;;;;;;28.55;34.32;96215.00;4956679;28;19962;-51
2023/06/03 00:58:50;;;;;;;;;;;;;;;28.53;33.99;96211.75;4960623;28;19965;-55
2023/06/03 01:01:19;;;;;;;;;;;;;;;28.56;33.88;96211.19;4957142;28;20028;-53
2023/06/03 01:03:47;;;;;;;;;;;;;;;28.71;33.98;96210.47;4956377;28;19961;-50
2023/06/03 01:06:17;;;;;;;;;;;;;;;28.22;34.37;96208.03;4955549;28;19969;-47
2023/06/03 01:08:50;;;;;;;;;;;;;;;28.50;33.66;96210.38;4958780;28;19969;-51
2023/06/03 01:11:21;;;;;;;;;;;;;;;28.25;34.45;96204.78;4958980;28;19985;-52
2023/06/03 01:13:51;;;;;;;;;;;;;;;28.67;33.54;96212.91;4958784;28;19980;-50
2023/06/03 01:16:19;;;;;;;;;;;;;;;28.15;34.33;96211.00;4959654;28;19965;-48
2023/06/03 01:18:47;;;;;;;;;;;;;;;27.61;34.71;96211.13;4956070;28;19961;-46
2023/06/03 01:21:16;;;;;;;;;;;;;;;27.65;34.85;96204.09;4953423;28;19957;-47
2023/06/03 01:23:46;;;;;;;;;;;;;;;28.70;33.51;96206.94;4960276;28;20012;-47
2023/06/03 01:26:16;;;;;;;;;;;;;;;27.84;34.43;96212.66;4956126;28;20414;-50
2023/06/03 01:28:49;;;;;;;;;;;;;;;27.24;35.21;96214.59;4960372;28;19969;-45
2023/06/03 01:31:17;;;;;;;;;;;;;;;28.28;34.15;96204.25;4957245;28;19961;-51
2023/06/03 01:33:45;;;;;;;;;;;;;;;28.82;33.53;96199.38;4956159;28;19961;-49
2023/06/03 01:36:13;;;;;;;;;;;;;;;27.74;34.67;96209.88;4954131;28;19922;-51
2023/06/03 01:38:42;;;;;;;;;;;;;;;28.14;34.27;96201.22;4959545;28;20431;-52
2023/06/03 01:41:11;;;;;;;;;;;;;;;28.14;34.20;96196.59;4960998;28;19961;-50
2023/06/03 01:43:39;;;;;;;;;;;;;;;28.15;34.07;96202.88;4958995;28;19961;-55
2023/06/03 01:46:07;;;;;;;;;;;;;;;27.67;34.75;96202.78;4954720;28;19954;-53
2023/06/03 01:48:35;;;;;;;;;;;;;;;27.47;35.14;96205.31;4958999;28;19950;-46
2023/06/03 01:51:03;;;;;;;;;;;;;;;27.92;34.48;96202.16;4966843;28;19962;-52
2023/06/03 01:53:32;;;;;;;;;;;;;;;28.06;34.46;96202.53;4960984;28;19972;-58
2023/06/03 01:56:00;;;;;;;;;;;;;;;27.72;34.74;96202.00;4957560;28;19972;-54
2023/06/03 01:58:30;;;;;;;;;;;;;;;28.08;34.42;96200.38;4954551;28;19961;-50
2023/06/03 02:00:58;;;;;;;;;;;;;;;27.89;34.54;96204.59;4955688;28;20000;-54
2023/06/03 02:03:26;;;;;;;;;;;;;;;28.17;33.97;96195.25;4958072;28;19961;-50
2023/06/03 02:05:54;;;;;;;;;;;;;;;27.53;34.93;96207.00;4958798;28;19965;-51
2023/06/03 02:08:23;;;;;;;;;;;;;;;27.94;34.28;96199.19;4955085;28;20038;-50
2023/06/03 02:10:51;;;;;;;;;;;;;;;28.45;33.74;96191.34;4957364;28;19972;-52
2023/06/03 02:13:20;;;;;;;;;;;;;;;27.54;35.20;96205.13;4954547;28;19984;-49
2023/06/03 02:15:49;;;;;;;;;;;;;;;27.89;34.54;96197.28;4959416;28;20377;-50
2023/06/03 02:18:17;;;;;;;;;;;;;;;27.42;34.97;96199.84;4959499;28;20362;-51
2023/06/03 02:20:45;;;;;;;;;;;;;;;27.81;34.58;96196.94;4958904;28;19964;-53
2023/06/03 02:23:13;;;;;;;;;;;;;;;27.57;34.82;96204.59;4957401;28;20433;-52
2023/06/03 02:25:41;;;;;;;;;;;;;;;28.04;34.20;96195.72;4952602;28;19984;-50
2023/06/03 02:28:09;;;;;;;;;;;;;;;27.73;34.59;96205.50;4960945;28;19962;-52
2023/06/03 02:30:37;;;;;;;;;;;;;;;28.06;33.92;96201.72;4961512;28;19949;-51
2023/06/03 02:33:07;;;;;;;;;;;;;;;28.05;34.01;96200.91;4960900;28;19961;-51
2023/06/03 02:35:44;;;;;;;;;;;;;;;27.31;34.74;96207.06;4958937;28;19985;-54
2023/06/03 02:38:32;;;;;;;;;;;;;;;28.08;34.08;96197.66;4975560;28;20377;-54
2023/06/03 02:41:00;;;;;;;;;;;;;;;27.82;34.31;96196.69;4972491;28;19961;-50
2023/06/03 02:43:28;;;;;;;;;;;;;;;27.86;34.15;96199.69;4955735;28;19957;-51
2023/06/03 02:45:56;;;;;;;;;;;;;;;27.72;34.23;96206.59;4961862;28;20442;-49
2023/06/03 02:48:26;;;;;;;;;;;;;;;27.13;35.02;96205.56;4956236;28;19973;-51
2023/06/03 02:50:54;;;;;;;;;;;;;;;27.61;34.85;96201.09;4960992;28;19976;-57
2023/06/03 02:53:22;;;;;;;;;;;;;;;26.87;35.77;96212.56;4960458;28;19961;-54
2023/06/03 02:55:50;;;;;;;;;;;;;;;27.40;35.20;96200.13;4958496;28;19961;-52
2023/06/03 02:58:19;;;;;;;;;;;;;;;27.09;35.51;96209.00;4958852;28;20987;-52
2023/06/03 03:00:47;;;;;;;;;;;;;;;27.38;35.06;96198.75;4955599;28;19953;-49
2023/06/03 03:03:16;;;;;;;;;;;;;;;27.13;35.08;96202.03;4955368;28;20433;-53
2023/06/03 03:05:46;;;;;;;;;;;;;;;26.67;36.24;96196.09;4958495;28;20402;-54
2023/06/03 03:08:14;;;;;;;;;;;;;;;26.84;35.95;96206.84;4958861;28;20386;-54
2023/06/03 03:10:42;;;;;;;;;;;;;;;26.70;36.11;96204.53;4954963;28;19969;-57
2023/06/03 03:13:10;;;;;;;;;;;;;;;27.06;35.49;96209.53;4959348;28;20441;-53
2023/06/03 03:15:38;;;;;;;;;;;;;;;26.92;35.55;96206.41;4954000;28;19961;-51
2023/06/03 03:18:06;;;;;;;;;;;;;;;27.29;35.19;96208.41;4950375;28;19965;-50
2023/06/03 03:20:35;;;;;;;;;;;;;;;27.21;35.15;96213.19;4956130;28;19992;-52
2023/06/03 03:23:06;;;;;;;;;;;;;;;27.16;35.44;96215.06;4968045;28;19968;-49
2023/06/03 03:25:34;;;;;;;;;;;;;;;27.24;35.13;96213.78;4962046;28;19969;-55
2023/06/03 03:28:02;;;;;;;;;;;;;;;27.72;34.60;96217.44;4962410;28;19964;-48
2023/06/03 03:30:30;;;;;;;;;;;;;;;27.77;34.16;96220.19;4960267;28;19957;-49
2023/06/03 03:32:59;;;;;;;;;;;;;;;27.96;33.97;96220.63;4967602;28;19968;-50
2023/06/03 03:35:27;;;;;;;;;;;;;;;27.53;34.69;96219.72;4959826;28;19957;-51
2023/06/03 03:38:00;;;;;;;;;;;;;;;27.82;34.21;96217.53;4961297;28;19969;-51
2023/06/03 03:40:30;;;;;;;;;;;;;;;27.49;34.75;96221.31;4957930;28;19962;-50
2023/06/03 03:42:59;;;;;;;;;;;;;;;26.52;35.82;96223.78;4959174;28;19965;-49
2023/06/03 03:45:29;;;;;;;;;;;;;;;27.12;35.03;96232.88;4959354;28;20059;-48
2023/06/03 03:48:00;;;;;;;;;;;;;;;27.19;35.34;96234.31;4958214;28;22999;-51
2023/06/03 03:50:45;;;;;;;;;;;;;;;27.53;34.93;96234.09;4963844;28;19984;-52
2023/06/03 03:53:14;;;;;;;;;;;;;;;26.98;35.56;96232.44;4959925;28;21931;-54
2023/06/03 03:55:45;;;;;;;;;;;;;;;28.12;34.01;96233.22;4960524;28;22398;-50
2023/06/03 03:58:17;;;;;;;;;;;;;;;28.18;33.64;96237.56;4967348;28;19978;-51
2023/06/03 04:00:45;;;;;;;;;;;;;;;28.30;33.59;96232.75;4962079;28;19954;-50
2023/06/03 04:03:14;;;;;;;;;;;;;;;28.71;33.27;96229.47;4961601;28;20426;-49
2023/06/03 04:05:43;;;;;;;;;;;;;;;28.85;32.93;96234.13;4964808;28;19957;-54
2023/06/03 04:08:11;;;;;;;;;;;;;;;29.01;32.22;96236.91;4960556;28;19961;-52
2023/06/03 04:10:39;;;;;;;;;;;;;;;29.90;31.62;96238.38;4956804;28;19961;-50
2023/06/03 04:13:09;;;;;;;;;;;;;;;30.45;30.87;96236.69;4962951;28;20400;-50
2023/06/03 04:15:38;;;;;;;;;;;;;;;30.34;30.84;96242.44;4960248;28;19966;-53
2023/06/03 04:18:06;;;;;;;;;;;;;;;30.39;30.89;96245.97;4964391;28;19958;-50
2023/06/03 04:20:39;;;;;;;;;;;;;;;30.22;31.08;96243.56;4958968;28;20373;-49
2023/06/03 04:23:07;;;;;;;;;;;;;;;30.73;30.58;96239.88;4963737;28;19965;-47
2023/06/03 04:25:36;;;;;;;;;;;;;;;30.12;31.26;96251.69;4958742;28;20381;-48
2023/06/03 04:28:04;;;;;;;;;;;;;;;29.76;31.81;96243.56;4962094;28;20389;-49
2023/06/03 04:30:34;;;;;;;;;;;;;;;29.87;31.44;96246.28;4961014;28;20378;-53
2023/06/03 04:33:02;;;;;;;;;;;;;;;29.91;31.66;96248.19;4957239;28;19966;-50
2023/06/03 04:35:31;;;;;;;;;;;;;;;29.57;31.89;96251.41;4960211;28;19961;-50
2023/06/03 04:37:59;;;;;;;;;;;;;;;31.51;29.86;96246.56;4961361;28;19984;-51
2023/06/03 04:40:27;;;;;;;;;;;;;;;31.29;29.75;96244.25;4960957;28;19977;-54
2023/06/03 04:42:55;;;;;;;;;;;;;;;30.24;31.28;96254.97;4958393;28;19977;-48
2023/06/03 04:45:27;;;;;;;;;;;;;;;29.93;31.41;96248.72;4960962;28;19984;-55
2023/06/03 04:48:01;;;;;;;;;;;;;;;31.24;30.25;96247.78;4958409;28;20457;-50
2023/06/03 04:50:35;;;;;;;;;;;;;;;30.23;31.18;96247.09;4963191;28;19977;-49
2023/06/03 04:53:04;;;;;;;;;;;;;;;30.46;31.21;96248.41;4956849;28;20012;-55
2023/06/03 04:55:32;;;;;;;;;;;;;;;31.02;30.05;96247.38;4958848;28;19968;-50
2023/06/03 04:58:02;;;;;;;;;;;;;;;31.14;30.55;96250.56;4963693;28;19987;-51
2023/06/03 05:00:32;;;;;;;;;;;;;;;31.61;30.22;96258.22;4965417;28;20019;-54
2023/06/03 05:03:08;;;;;;;;;;;;;;;31.10;30.56;96252.25;4960437;28;20538;-52
2023/06/03 05:05:41;;;;;;;;;;;;;;;31.81;29.51;96250.97;4958599;28;19980;-49
2023/06/03 05:08:10;;;;;;;;;;;;;;;31.09;30.86;96259.59;4958965;28;20394;-54
2023/06/03 05:10:38;;;;;;;;;;;;;;;33.35;28.47;96248.22;4963550;28;19965;-53
2023/06/03 05:13:06;;;;;;;;;;;;;;;31.95;29.20;96251.16;4954167;28;20709;-55
2023/06/03 05:15:35;;;;;;;;;;;;;;;32.11;29.79;96252.66;4965144;28;19972;-48
2023/06/03 05:18:04;;;;;;;;;;;;;;;31.76;30.18;96253.72;4958138;28;19965;-49
2023/06/03 05:20:32;;;;;;;;;;;;;;;31.19;30.31;96243.19;4962364;28;19972;-54
2023/06/03 05:23:00;;;;;;;;;;;;;;;31.54;30.20;96238.63;4966848;28;19969;-48
2023/06/03 05:25:28;;;;;;;;;;;;;;;29.24;33.40;96249.19;4960771;28;19961;-53
2023/06/03 05:27:56;;;;;;;;;;;;;;;30.49;32.11;96240.50;4958862;28;20377;-58
2023/06/03 05:30:31;;;;;;;;;;;;;;;28.78;33.38;96249.03;4952204;28;20411;-52
2023/06/03 05:32:59;;;;;;;;;;;;;;;30.50;32.06;96247.56;4958094;28;19926;-52
2023/06/03 05:35:29;;;;;;;;;;;;;;;30.98;30.99;96255.31;4958126;28;19945;-56
2023/06/03 05:37:57;;;;;;;;;;;;;;;30.55;31.98;96252.16;4959543;28;19988;-52
2023/06/03 05:40:25;;;;;;;;;;;;;;;29.32;33.56;96248.69;4961195;28;20053;-51
2023/06/03 05:42:55;;;;;;;;;;;;;;;28.28;34.25;96261.22;4957981;28;19969;-50
2023/06/03 05:45:23;;;;;;;;;;;;;;;30.34;32.29;96248.69;4959399;28;19965;-52
2023/06/03 05:47:51;;;;;;;;;;;;;;;28.34;34.32;96247.44;4957051;28;19965;-51
2023/06/03 05:50:19;;;;;;;;;;;;;;;28.18;34.71;96253.84;4959282;28;19962;-52
2023/06/03 05:52:49;;;;;;;;;;;;;;;28.94;33.63;96252.59;4966256;28;20511;-50
2023/06/03 05:55:18;;;;;;;;;;;;;;;29.30;33.09;96248.13;4964124;28;19957;-53
2023/06/03 05:57:46;;;;;;;;;;;;;;;30.62;31.63;96239.06;4966946;28;20406;-49
2023/06/03 06:00:15;;;;;;;;;;;;;;;28.90;33.55;96248.78;4956384;28;20338;-55
2023/06/03 06:02:43;;;;;;;;;;;;;;;28.77;33.55;96237.38;4963392;28;19964;-50
2023/06/03 06:05:11;;;;;;;;;;;;;;;30.18;32.10;96241.63;4960770;28;19962;-49
2023/06/03 06:07:39;;;;;;;;;;;;;;;28.78;33.53;96247.13;4959164;28;19957;-51
2023/06/03 06:10:09;;;;;;;;;;;;;;;28.29;34.45;96260.16;4966933;28;19965;-51
2023/06/03 06:12:37;;;;;;;;;;;;;;;28.46;34.76;96255.41;4966610;28;19961;-49
2023/06/03 06:15:05;;;;;;;;;;;;;;;28.25;34.86;96256.31;4960525;28;19968;-48
2023/06/03 06:17:33;;;;;;;;;;;;;;;27.72;35.38;96267.03;4963393;28;20668;-52
2023/06/03 06:20:02;;;;;;;;;;;;;;;28.78;33.97;96252.56;4960705;28;20487;-53
2023/06/03 06:22:31;;;;;;;;;;;;;;;27.82;34.81;96258.19;4959554;28;19966;-47
2023/06/03 06:24:59;;;;;;;;;;;;;;;29.26;33.85;96247.84;4966511;28;19965;-49
2023/06/03 06:27:30;;;;;;;;;;;;;;;30.63;32.36;96248.88;4963289;28;20424;-49
2023/06/03 06:29:58;;;;;;;;;;;;;;;29.44;33.52;96262.00;4956518;28;19960;-52
2023/06/03 06:32:26;;;;;;;;;;;;;;;29.66;32.79;96265.28;4963956;28;19973;-53
2023/06/03 06:34:54;;;;;;;;;;;;;;;29.46;32.84;96259.84;4959187;28;20008;-51
2023/06/03 06:37:22;;;;;;;;;;;;;;;30.36;32.21;96265.56;4961324;28;19969;-55
2023/06/03 06:39:51;;;;;;;;;;;;;;;30.07;31.93;96259.03;4964283;28;19969;-56
2023/06/03 06:42:24;;;;;;;;;;;;;;;30.98;31.26;96264.28;4963165;28;19965;-54
2023/06/03 06:44:54;;;;;;;;;;;;;;;29.61;33.04;96269.94;4961812;28;19977;-52
2023/06/03 06:47:24;;;;;;;;;;;;;;;30.21;32.16;96262.84;4967530;28;19971;-50
2023/06/03 06:49:53;;;;;;;;;;;;;;;29.34;33.18;96262.78;4963663;28;19965;-52
2023/06/03 06:52:22;;;;;;;;;;;;;;;29.38;33.56;96263.06;4963362;28;20358;-57
2023/06/03 06:54:50;;;;;;;;;;;;;;;29.94;32.34;96254.97;4957899;28;20362;-50
2023/06/03 06:57:19;;;;;;;;;;;;;;;29.96;32.42;96256.34;4969564;28;19965;-52
2023/06/03 06:59:47;;;;;;;;;;;;;;;30.39;31.95;96259.56;4962334;28;19957;-54
2023/06/03 07:02:17;;;;;;;;;;;;;;;30.82;31.69;96254.53;4961027;28;19965;-52
2023/06/03 07:04:45;;;;;;;;;;;;;;;31.02;31.41;96261.00;4961594;28;20402;-48
2023/06/03 07:07:13;;;;;;;;;;;;;;;30.36;32.69;96260.13;4957627;28;20172;-51
2023/06/03 07:09:41;;;;;;;;;;;;;;;31.31;31.33;96258.38;4965371;28;19972;-48
2023/06/03 07:12:10;;;;;;;;;;;;;;;29.30;33.14;96265.22;4964147;28;19992;-51
2023/06/03 07:14:38;;;;;;;;;;;;;;;30.80;32.25;96256.75;4968990;28;19961;-50
2023/06/03 07:17:06;;;;;;;;;;;;;;;31.05;31.19;96257.72;4963740;28;19961;-53
2023/06/03 07:19:36;;;;;;;;;;;;;;;31.21;31.66;96259.25;4962941;28;20445;-54
2023/06/03 07:22:05;;;;;;;;;;;;;;;31.53;31.42;96266.19;4959959;28;19964;-51
2023/06/03 07:24:34;;;;;;;;;;;;;;;29.60;33.59;96271.84;4961463;28;19976;-53
2023/06/03 07:27:04;;;;;;;;;;;;;;;30.67;32.23;96263.56;4960719;28;19969;-54
2023/06/03 07:29:35;;;;;;;;;;;;;;;30.64;31.81;96266.03;4964720;28;20411;-51
2023/06/03 07:32:05;;;;;;;;;;;;;;;31.59;31.76;96273.22;4967104;28;19961;-57
2023/06/03 07:34:34;;;;;;;;;;;;;;;30.59;32.62;96274.19;4962507;28;20603;-51
2023/06/03 07:37:03;;;;;;;;;;;;;;;31.38;31.55;96270.66;4959955;28;19968;-50
2023/06/03 07:39:32;;;;;;;;;;;;;;;31.64;30.75;96276.72;4954272;28;19966;-50
2023/06/03 07:42:00;;;;;;;;;;;;;;;32.22;30.74;96283.38;4959087;28;20432;-54
2023/06/03 07:44:34;;;;;;;;;;;;;;;31.12;31.77;96282.75;4965742;28;19965;-50
2023/06/03 07:47:03;;;;;;;;;;;;;;;31.51;31.37;96282.00;4954963;28;19964;-50
2023/06/03 07:49:31;;;;;;;;;;;;;;;31.51;31.40;96284.72;4958089;28;19961;-50
2023/06/03 07:51:59;;;;;;;;;;;;;;;31.70;31.29;96284.88;4957743;28;19969;-51
2023/06/03 07:54:29;;;;;;;;;;;;;;;31.46;31.58;96287.50;4963003;28;20353;-52
2023/06/03 07:56:57;;;;;;;;;;;;;;;31.88;30.84;96287.75;4961638;28;19954;-53
2023/06/03 07:59:26;;;;;;;;;;;;;;;30.77;31.81;96283.72;4955376;28;20530;-49
2023/06/03 08:01:54;;;;;;;;;;;;;;;32.50;30.59;96282.59;4960087;28;19980;-54
2023/06/03 08:04:28;;;;;;;;;;;;;;;33.60;29.33;96284.53;4958335;28;19953;-52
2023/06/03 08:06:56;;;;;;;;;;;;;;;32.02;30.59;96282.47;4962546;28;19973;-55
2023/06/03 08:09:26;;;;;;;;;;;;;;;32.17;30.61;96297.06;4967951;28;20407;-52
2023/06/03 08:11:56;;;;;;;;;;;;;;;32.82;29.58;96283.84;4965056;28;19950;-52
2023/06/03 08:14:24;;;;;;;;;;;;;;;33.20;29.78;96286.69;4965022;28;19972;-52
2023/06/03 08:16:52;;;;;;;;;;;;;;;32.94;29.88;96284.28;4963051;28;19965;-51
2023/06/03 08:19:20;;;;;;;;;;;;;;;32.60;30.58;96293.41;4972088;28;20369;-52
2023/06/03 08:21:50;;;;;;;;;;;;;;;34.05;28.91;96283.00;4961005;28;20228;-54
2023/06/03 08:24:19;;;;;;;;;;;;;;;31.94;30.73;96285.81;4966193;28;20401;-52
2023/06/03 08:26:47;;;;;;;;;;;;;;;33.46;29.32;96284.44;4960321;28;19989;-50
2023/06/03 08:29:16;;;;;;;;;;;;;;;32.49;30.08;96296.53;4961216;28;19961;-55
2023/06/03 08:31:44;;;;;;;;;;;;;;;32.63;29.81;96308.38;4960034;28;20431;-47
2023/06/03 08:34:13;;;;;;;;;;;;;;;32.41;30.27;96297.91;4959754;28;19965;-55
2023/06/03 08:36:41;;;;;;;;;;;;;;;32.07;30.35;96293.34;4957119;28;19962;-50
2023/06/03 08:39:09;;;;;;;;;;;;;;;32.70;29.89;96297.13;4970174;28;20480;-54
2023/06/03 08:41:38;;;;;;;;;;;;;;;33.48;28.50;96282.22;4964005;28;20016;-52
2023/06/03 08:44:10;;;;;;;;;;;;;;;33.56;29.24;96289.78;4960629;28;19961;-54
2023/06/03 08:46:42;;;;;;;;;;;;;;;33.43;29.19;96287.75;4964158;28;19965;-49
2023/06/03 08:49:11;;;;;;;;;;;;;;;32.31;30.32;96289.81;4960988;28;19978;-54
2023/06/03 08:51:39;;;;;;;;;;;;;;;33.44;29.54;96287.44;4965700;28;19972;-56
2023/06/03 08:54:11;;;;;;;;;;;;;;;33.49;29.29;96290.16;4961600;28;19954;-50
2023/06/03 08:56:40;;;;;;;;;;;;;;;32.97;29.91;96291.91;4970223;28;20572;-52
2023/06/03 08:59:08;;;;;;;;;;;;;;;32.53;29.53;96290.19;4967269;28;19985;-50
2023/06/03 09:01:37;;;;;;;;;;;;;;;33.16;29.43;96291.13;4964998;28;19965;-52
2023/06/03 09:04:06;;;;;;;;;;;;;;;33.46;28.65;96295.38;4960781;28;20377;-51
2023/06/03 09:06:35;;;;;;;;;;;;;;;34.40;28.00;96294.44;4967143;28;19957;-51
2023/06/03 09:09:03;;;;;;;;;;;;;;;33.59;28.79;96288.34;4967868;28;19962;-49
2023/06/03 09:11:31;;;;;;;;;;;;;;;34.07;27.78;96293.66;4964336;28;19965;-49
2023/06/03 09:13:59;;;;;;;;;;;;;;;34.40;28.14;96280.75;4965292;28;19937;-51
2023/06/03 09:16:27;;;;;;;;;;;;;;;33.34;29.24;96284.84;4957892;28;19961;-54
2023/06/03 09:18:56;;;;;;;;;;;;;;;33.72;28.49;96276.69;4963870;28;19970;-49
2023/06/03 09:21:25;;;;;;;;;;;;;;;34.70;28.09;96280.22;4963440;28;19965;-53
2023/06/03 09:23:53;;;;;;;;;;;;;;;32.99;28.82;96280.69;4967937;28;20694;-51
2023/06/03 09:26:21;;;;;;;;;;;;;;;33.98;28.46;96279.81;4963974;28;19949;-49
2023/06/03 09:28:49;;;;;;;;;;;;;;;33.11;29.18;96281.09;4962581;28;19969;-50
2023/06/03 09:31:18;;;;;;;;;;;;;;;34.32;28.25;96276.00;4963961;28;19954;-51
2023/06/03 09:33:46;;;;;;;;;;;;;;;34.24;28.19;96275.56;4961883;28;19968;-52
2023/06/03 09:36:15;;;;;;;;;;;;;;;35.53;26.93;96273.88;4963560;28;19965;-53
2023/06/03 09:38:51;;;;;;;;;;;;;;;34.34;28.38;96290.97;4967653;28;19965;-51
2023/06/03 09:41:20;;;;;;;;;;;;;;;35.28;27.38;96283.47;4964044;28;19956;-54
2023/06/03 09:43:55;;;;;;;;;;;;;;;33.63;29.16;96282.03;4966561;28;19953;-54
2023/06/03 09:46:23;;;;;;;;;;;;;;;33.69;28.63;96274.53;4961066;28;20417;-52
2023/06/03 09:48:51;;;;;;;;;;;;;;;33.97;28.33;96280.94;4960668;28;19953;-54
2023/06/03 09:51:19;;;;;;;;;;;;;;;34.47;28.28;96286.66;4963996;28;19956;-52
2023/06/03 09:53:47;;;;;;;;;;;;;;;34.38;27.87;96278.34;4970896;28;20363;-50
2023/06/03 09:56:23;;;;;;;;;;;;;;;34.31;27.76;96279.81;4962611;28;19961;-47
2023/06/03 09:58:52;;;;;;;;;;;;;;;34.12;28.42;96286.19;4961983;28;19985;-49
2023/06/03 10:01:31;;;;;;;;;;;;;;;34.85;27.82;96287.31;4965365;28;19969;-50
2023/06/03 10:04:00;;;;;;;;;;;;;;;33.33;29.04;96289.50;4961240;28;19980;-51
2023/06/03 10:06:28;;;;;;;;;;;;;;;33.91;28.88;96284.88;4962737;28;19958;-49
2023/06/03 10:08:56;;;;;;;;;;;;;;;33.84;29.09;96271.56;4964223;28;19969;-56
2023/06/03 10:11:26;;;;;;;;;;;;;;;34.53;28.74;96285.47;4959653;28;20413;-57
2023/06/03 10:14:04;;;;;;;;;;;;;;;34.18;28.49;96279.50;4967598;28;20353;-53
2023/06/03 10:16:32;;;;;;;;;;;;;;;34.09;28.64;96284.03;4958220;28;19949;-51
2023/06/03 10:19:00;;;;;;;;;;;;;;;32.91;29.81;96293.03;4968654;28;19991;-54
2023/06/03 10:21:29;;;;;;;;;;;;;;;34.14;28.15;96283.16;4961310;28;19965;-54
2023/06/03 10:23:59;;;;;;;;;;;;;;;35.58;27.42;96273.75;4964423;28;20346;-57
2023/06/03 10:26:29;;;;;;;;;;;;;;;33.97;28.24;96272.72;4964158;28;19980;-53
2023/06/03 10:28:57;;;;;;;;;;;;;;;34.83;27.80;96275.06;4970030;28;19949;-51
2023/06/03 10:31:25;;;;;;;;;;;;;;;33.61;29.33;96283.41;4960980;28;19965;-51
2023/06/03 10:33:53;;;;;;;;;;;;;;;34.40;28.48;96272.56;4960939;28;19953;-53
2023/06/03 10:36:21;;;;;;;;;;;;;;;35.49;27.52;96267.38;4964744;28;20406;-53
2023/06/03 10:38:49;;;;;;;;;;;;;;;35.40;27.41;96259.84;4959246;28;19953;-52
2023/06/03 10:41:17;;;;;;;;;;;;;;;35.11;27.57;96265.72;4957237;28;19957;-49
2023/06/03 10:43:46;;;;;;;;;;;;;;;35.54;27.34;96256.28;4962216;28;20339;-52
2023/06/03 10:46:14;;;;;;;;;;;;;;;35.43;26.62;96261.16;4961059;28;19953;-55
2023/06/03 10:48:43;;;;;;;;;;;;;;;34.24;28.50;96269.25;4957042;28;19960;-53
2023/06/03 10:51:21;;;;;;;;;;;;;;;36.90;26.00;96261.31;4960976;28;20414;-51
2023/06/03 10:53:51;;;;;;;;;;;;;;;34.44;27.70;96271.63;4963075;28;19953;-53
2023/06/03 10:56:21;;;;;;;;;;;;;;;34.87;27.11;96267.84;4962199;28;20030;-51
2023/06/03 10:58:59;;;;;;;;;;;;;;;35.67;26.88;96267.22;4961976;28;19953;-53
2023/06/03 11:01:42;;;;;;;;;;;;;;;35.08;26.72;96255.38;4961559;28;19965;-49
2023/06/03 11:04:16;;;;;;;;;;;;;;;34.36;27.87;96255.91;4965088;28;20432;-54
2023/06/03 11:06:45;;;;;;;;;;;;;;;35.31;26.78;96258.97;4957299;28;19960;-51
2023/06/03 11:09:16;;;;;;;;;;;;;;;36.28;26.09;96264.13;4962692;28;19957;-59
2023/06/03 11:11:58;;;;;;;;;;;;;;;35.64;27.16;96262.34;4967333;28;19957;-52
2023/06/03 11:14:48;;;;;;;;;;;;;;;35.10;26.15;96258.63;4962738;28;20030;-50
2023/06/03 11:17:18;;;;;;;;;;;;;;;35.62;26.37;96261.88;4963884;28;20433;-50
2023/06/03 11:19:47;;;;;;;;;;;;;;;35.22;26.58;96258.06;4957484;28;19957;-48
2023/06/03 11:22:37;;;;;;;;;;;;;;;34.78;27.18;96270.47;4962127;28;19965;-51
2023/06/03 11:25:06;;;;;;;;;;;;;;;34.77;27.67;96259.81;4958108;28;19968;-50
2023/06/03 11:27:35;;;;;;;;;;;;;;;35.75;26.37;96256.63;4960832;28;19965;-50
2023/06/03 11:30:06;;;;;;;;;;;;;;;35.62;26.22;96252.81;4957267;28;20331;-48
2023/06/03 11:32:36;;;;;;;;;;;;;;;35.22;26.69;96243.56;4962029;28;19965;-52
2023/06/03 11:35:23;;;;;;;;;;;;;;;35.72;27.11;96255.31;4965779;28;19962;-50
2023/06/03 11:37:52;;;;;;;;;;;;;;;36.81;24.91;96247.53;4957991;28;19973;-50
2023/06/03 11:40:20;;;;;;;;;;;;;;;36.22;25.62;96237.91;4962999;28;19969;-52
2023/06/03 11:43:07;;;;;;;;;;;;;;;35.22;26.58;96251.78;4959747;28;19968;-51
2023/06/03 11:45:37;;;;;;;;;;;;;;;35.63;25.74;96238.78;4962530;28;19961;-49
2023/06/03 11:48:09;;;;;;;;;;;;;;;35.04;27.26;96242.59;4965066;28;19929;-48
2023/06/03 11:50:47;;;;;;;;;;;;;;;35.93;25.62;96239.16;4966952;28;19961;-49
2023/06/03 11:53:27;;;;;;;;;;;;;;;36.35;25.87;96237.81;4962029;28;19980;-52
2023/06/03 11:56:01;;;;;;;;;;;;;;;35.55;26.24;96238.69;4962009;28;19922;-53
2023/06/03 11:58:29;;;;;;;;;;;;;;;35.09;26.30;96237.78;4962833;28;19980;-57
2023/06/03 12:01:07;;;;;;;;;;;;;;;35.51;25.98;96240.41;4963176;28;19961;-53
2023/06/03 12:03:37;;;;;;;;;;;;;;;36.69;24.89;96227.31;4957886;28;20546;-52
2023/06/03 12:06:05;;;;;;;;;;;;;;;36.16;25.45;96228.97;4960641;28;19969;-53
2023/06/03 12:08:43;;;;;;;;;;;;;;;35.25;26.03;96218.28;4962331;28;19961;-53
2023/06/03 12:11:11;;;;;;;;;;;;;;;35.21;26.09;96228.25;4966161;28;20437;-51
2023/06/03 12:13:41;;;;;;;;;;;;;;;35.69;25.75;96222.19;4965806;28;19922;-55
2023/06/03 12:16:09;;;;;;;;;;;;;;;36.27;24.91;96226.75;4963877;28;19968;-50
2023/06/03 12:18:39;;;;;;;;;;;;;;;36.19;25.30;96216.56;4959970;28;19973;-50
2023/06/03 12:21:20;;;;;;;;;;;;;;;35.61;25.25;96213.56;4964864;28;19965;-54
2023/06/03 12:23:48;;;;;;;;;;;;;;;34.92;26.29;96215.66;4964894;28;19972;-51
2023/06/03 12:26:16;;;;;;;;;;;;;;;36.11;25.24;96221.69;4964381;28;19950;-51
2023/06/03 12:28:46;;;;;;;;;;;;;;;35.77;25.32;96215.97;4964609;28;20353;-49
2023/06/03 12:31:14;;;;;;;;;;;;;;;36.81;25.05;96214.56;4963068;28;19969;-55
2023/06/03 12:33:44;;;;;;;;;;;;;;;36.26;25.04;96211.44;4972115;28;20402;-53
2023/06/03 12:36:12;;;;;;;;;;;;;;;36.68;24.83;96217.44;4965205;28;19980;-51
2023/06/03 12:38:53;;;;;;;;;;;;;;;36.04;25.09;96210.34;4962302;28;19966;-49
2023/06/03 12:41:22;;;;;;;;;;;;;;;37.10;24.02;96212.38;4961726;28;19958;-51
2023/06/03 12:43:50;;;;;;;;;;;;;;;37.38;24.04;96212.91;4964532;28;19961;-51
2023/06/03 12:46:18;;;;;;;;;;;;;;;35.83;25.05;96210.03;4963146;28;20696;-51
2023/06/03 12:48:48;;;;;;;;;;;;;;;36.13;24.81;96222.19;4968994;28;19965;-50
2023/06/03 12:51:22;;;;;;;;;;;;;;;35.79;25.05;96217.28;4963215;28;19968;-49
2023/06/03 12:53:55;;;;;;;;;;;;;;;35.10;25.53;96208.44;4963390;28;19967;-55
2023/06/03 12:56:24;;;;;;;;;;;;;;;36.18;24.66;96201.22;4966885;28;19961;-53
2023/06/03 12:58:52;;;;;;;;;;;;;;;36.33;24.30;96200.78;4961302;28;19954;-48
2023/06/03 13:01:20;;;;;;;;;;;;;;;36.26;24.76;96206.75;4964236;28;19961;-51